createdAt,value
2023-05-14T00:01:03.822Z,8.31
2023-05-14T00:03:37.065Z,8.30
2023-05-14T00:06:10.948Z,8.30
2023-05-14T00:08:42.738Z,8.29
2023-05-14T00:11:14.697Z,8.27
2023-05-14T00:13:46.432Z,8.25
2023-05-14T00:16:18.416Z,8.22
2023-05-14T00:18:50.339Z,8.19
2023-05-14T00:21:22.131Z,8.18
2023-05-14T00:23:53.986Z,8.21
2023-05-14T00:26:25.879Z,8.24
2023-05-14T00:28:57.746Z,8.25
2023-05-14T00:31:29.696Z,8.26
2023-05-14T00:34:01.510Z,8.24
2023-05-14T00:36:33.521Z,8.19
2023-05-14T00:39:05.475Z,8.14
2023-05-14T00:41:37.413Z,8.11
2023-05-14T00:44:09.323Z,8.09
2023-05-14T00:46:41.200Z,8.09
2023-05-14T00:49:13.068Z,8.09
2023-05-14T00:51:47.006Z,8.09
2023-05-14T00:54:19.739Z,8.06
2023-05-14T00:56:51.610Z,8.02
2023-05-14T00:59:23.422Z,7.98
2023-05-14T01:01:55.482Z,7.92
2023-05-14T01:04:27.672Z,7.86
2023-05-14T01:07:09.757Z,7.84
2023-05-14T01:09:45.788Z,7.76
2023-05-14T01:12:22.870Z,7.79
2023-05-14T01:14:59.031Z,7.79
2023-05-14T01:17:32.563Z,7.71
2023-05-14T01:20:05.342Z,7.74
2023-05-14T01:22:37.741Z,7.74
2023-05-14T01:25:11.503Z,7.71
2023-05-14T01:27:47.608Z,7.76
2023-05-14T01:30:23.392Z,7.73
2023-05-14T01:32:57.865Z,7.70
2023-05-14T01:35:30.748Z,7.64
2023-05-14T01:38:05.265Z,7.58
2023-05-14T01:40:38.853Z,7.51
2023-05-14T01:43:11.736Z,7.44
2023-05-14T01:45:44.872Z,7.43
2023-05-14T01:48:16.794Z,7.41
2023-05-14T01:50:48.751Z,7.36
2023-05-14T01:53:21.012Z,7.40
2023-05-14T01:55:52.936Z,7.42
2023-05-14T01:58:24.885Z,7.42
2023-05-14T02:00:56.771Z,7.41
2023-05-14T02:03:28.949Z,7.37
2023-05-14T02:06:00.894Z,7.28
2023-05-14T02:08:32.719Z,7.25
2023-05-14T02:11:04.631Z,7.19
2023-05-14T02:13:37.526Z,7.14
2023-05-14T02:16:10.532Z,7.12
2023-05-14T02:18:42.424Z,7.07
2023-05-14T02:21:14.281Z,7.10
2023-05-14T02:23:46.049Z,7.07
2023-05-14T02:26:17.834Z,7.03
2023-05-14T02:28:49.724Z,7.00
2023-05-14T02:31:21.545Z,6.95
2023-05-14T02:33:53.363Z,6.91
2023-05-14T02:36:25.185Z,6.85
2023-05-14T02:38:57.029Z,6.81
2023-05-14T02:41:29.377Z,6.78
2023-05-14T02:44:01.140Z,6.76
2023-05-14T02:46:33.515Z,6.72
2023-05-14T02:49:06.916Z,6.71
2023-05-14T02:51:38.779Z,6.69
2023-05-14T02:54:10.572Z,6.68
2023-05-14T02:56:42.373Z,6.65
2023-05-14T02:59:14.548Z,6.58
2023-05-14T03:01:47.258Z,6.53
2023-05-14T03:04:19.666Z,6.49
2023-05-14T03:06:51.599Z,6.47
2023-05-14T03:09:23.344Z,6.49
2023-05-14T03:11:56.129Z,6.47
2023-05-14T03:14:28.110Z,6.48
2023-05-14T03:17:00.178Z,6.49
2023-05-14T03:19:32.063Z,6.53
2023-05-14T03:22:04.067Z,6.53
2023-05-14T03:24:36.470Z,6.58
2023-05-14T03:27:08.818Z,6.59
2023-05-14T03:29:40.610Z,6.60
2023-05-14T03:32:12.759Z,6.63
2023-05-14T03:34:45.082Z,6.62
2023-05-14T03:37:16.984Z,6.72
2023-05-14T03:39:48.850Z,6.77
2023-05-14T03:42:20.706Z,6.82
2023-05-14T03:44:52.858Z,6.88
2023-05-14T03:47:24.661Z,6.92
2023-05-14T03:49:57.881Z,6.96
2023-05-14T03:52:29.719Z,7.00
2023-05-14T03:55:01.461Z,7.04
2023-05-14T03:57:33.417Z,7.05
2023-05-14T04:00:05.419Z,7.15
2023-05-14T04:02:48.551Z,7.22
2023-05-14T04:05:20.965Z,7.31
2023-05-14T04:07:53.054Z,7.42
2023-05-14T04:10:25.615Z,7.51
2023-05-14T04:12:58.708Z,7.61
2023-05-14T04:15:35.814Z,7.74
2023-05-14T04:18:08.167Z,7.87
2023-05-14T04:20:40.658Z,7.98
2023-05-14T04:23:12.779Z,8.09
2023-05-14T04:25:44.805Z,8.18
2023-05-14T04:28:16.730Z,8.28
2023-05-14T04:30:48.542Z,8.41
2023-05-14T04:33:20.440Z,8.52
2023-05-14T04:35:52.789Z,8.65
2023-05-14T04:38:24.597Z,8.79
2023-05-14T04:40:57.056Z,8.95
2023-05-14T04:43:28.812Z,9.10
2023-05-14T04:46:00.720Z,9.32
2023-05-14T04:48:32.815Z,9.50
2023-05-14T04:51:06.966Z,9.66
2023-05-14T04:53:39.073Z,9.86
2023-05-14T04:56:11.118Z,10.05
2023-05-14T04:58:42.973Z,10.19
2023-05-14T05:01:15.738Z,10.36
2023-05-14T05:03:48.138Z,10.50
2023-05-14T05:06:22.579Z,10.68
2023-05-14T05:08:54.631Z,10.83
2023-05-14T05:11:26.394Z,11.02
2023-05-14T05:13:58.181Z,11.28
2023-05-14T05:16:31.698Z,11.43
2023-05-14T05:19:03.753Z,11.56
2023-05-14T05:21:35.660Z,11.69
2023-05-14T05:24:08.201Z,11.82
2023-05-14T05:26:40.094Z,11.97
2023-05-14T05:29:12.009Z,12.16
2023-05-14T05:31:44.223Z,12.44
2023-05-14T05:34:16.432Z,12.62
2023-05-14T05:36:48.256Z,12.73
2023-05-14T05:39:20.046Z,12.85
2023-05-14T05:41:52.013Z,12.95
2023-05-14T05:44:23.757Z,13.06
2023-05-14T05:46:57.394Z,13.18
2023-05-14T05:49:29.536Z,13.31
2023-05-14T05:52:01.355Z,13.43
2023-05-14T05:54:33.534Z,13.55
2023-05-14T05:57:05.572Z,13.68
2023-05-14T05:59:37.729Z,13.82
2023-05-14T06:02:09.705Z,13.94
2023-05-14T06:04:42.065Z,14.09
2023-05-14T06:07:14.224Z,14.21
2023-05-14T06:09:46.506Z,14.37
2023-05-14T06:12:18.419Z,14.52
2023-05-14T06:14:50.264Z,14.68
2023-05-14T06:17:22.269Z,14.83
2023-05-14T06:19:54.230Z,15.15
2023-05-14T06:22:25.996Z,15.74
2023-05-14T06:24:57.915Z,16.93
2023-05-14T06:27:29.801Z,18.28
2023-05-14T06:30:01.732Z,19.54
2023-05-14T06:32:33.656Z,20.66
2023-05-14T06:35:06.650Z,21.68
2023-05-14T06:37:38.598Z,22.58
2023-05-14T06:40:13.185Z,23.37
2023-05-14T06:42:45.029Z,24.04
2023-05-14T06:45:16.885Z,24.65
2023-05-14T06:47:49.092Z,25.12
2023-05-14T06:50:21.905Z,25.55
2023-05-14T06:52:54.027Z,25.98
2023-05-14T06:55:26.128Z,26.35
2023-05-14T06:57:57.908Z,26.74
2023-05-14T07:00:31.288Z,27.10
2023-05-14T07:03:03.087Z,27.36
2023-05-14T07:05:35.080Z,27.65
2023-05-14T07:08:07.363Z,27.97
2023-05-14T07:10:40.033Z,28.26
2023-05-14T07:13:12.918Z,28.46
2023-05-14T07:15:44.842Z,28.58
2023-05-14T07:18:16.961Z,28.71
2023-05-14T07:20:48.881Z,28.69
2023-05-14T07:23:20.746Z,28.74
2023-05-14T07:25:53.210Z,28.77
2023-05-14T07:28:25.062Z,28.75
2023-05-14T07:30:57.023Z,28.70
2023-05-14T07:33:29.034Z,28.66
2023-05-14T07:36:00.842Z,28.67
2023-05-14T07:38:32.805Z,28.71
2023-05-14T07:41:05.077Z,28.77
2023-05-14T07:43:38.514Z,28.85
2023-05-14T07:46:08.881Z,28.95
2023-05-14T07:48:40.801Z,28.90
2023-05-14T07:51:13.055Z,28.89
2023-05-14T07:53:44.968Z,28.88
2023-05-14T07:56:16.907Z,28.74
2023-05-14T07:58:48.742Z,28.59
2023-05-14T08:01:20.877Z,28.38
2023-05-14T08:03:52.981Z,28.14
2023-05-14T08:06:27.645Z,27.82
2023-05-14T08:08:59.611Z,27.44
2023-05-14T08:11:31.399Z,27.12
2023-05-14T08:14:03.373Z,26.82
2023-05-14T08:16:35.553Z,26.57
2023-05-14T08:19:07.459Z,26.36
2023-05-14T08:21:39.932Z,26.27
2023-05-14T08:24:12.415Z,26.17
2023-05-14T08:26:44.193Z,26.10
2023-05-14T08:29:16.656Z,25.96
2023-05-14T08:31:49.347Z,25.84
2023-05-14T08:34:21.336Z,25.78
2023-05-14T08:36:53.155Z,25.72
2023-05-14T08:39:24.973Z,25.56
2023-05-14T08:41:58.407Z,25.40
2023-05-14T08:44:34.988Z,25.27
2023-05-14T08:47:07.195Z,25.18
2023-05-14T08:49:45.047Z,25.17
2023-05-14T08:52:18.946Z,25.11
2023-05-14T08:54:52.646Z,25.09
2023-05-14T08:57:24.977Z,25.06
2023-05-14T08:59:57.386Z,24.97
2023-05-14T09:02:31.309Z,24.91
2023-05-14T09:05:04.544Z,24.96
2023-05-14T09:07:36.569Z,24.99
2023-05-14T09:10:10.579Z,25.06
2023-05-14T09:12:42.587Z,24.98
2023-05-14T09:15:14.759Z,24.97
2023-05-14T09:17:48.084Z,24.98
2023-05-14T09:20:20.096Z,24.96
2023-05-14T09:22:56.756Z,24.93
2023-05-14T09:25:30.820Z,24.94
2023-05-14T09:28:02.704Z,24.97
2023-05-14T09:30:37.155Z,24.92
2023-05-14T09:33:10.527Z,24.77
2023-05-14T09:35:43.590Z,24.71
2023-05-14T09:38:15.609Z,24.62
2023-05-14T09:40:48.844Z,24.58
2023-05-14T09:43:20.934Z,24.50
2023-05-14T09:45:52.834Z,24.46
2023-05-14T09:48:24.749Z,24.43
2023-05-14T09:50:56.673Z,24.34
2023-05-14T09:53:28.586Z,24.31
2023-05-14T09:56:00.719Z,24.32
2023-05-14T09:58:32.483Z,24.31
2023-05-14T10:01:04.746Z,24.28
2023-05-14T10:03:37.478Z,24.22
2023-05-14T10:06:10.744Z,24.17
2023-05-14T10:08:45.346Z,24.09
2023-05-14T10:11:22.426Z,24.13
2023-05-14T10:14:00.380Z,24.16
2023-05-14T10:16:35.519Z,24.18
2023-05-14T10:19:11.568Z,24.14
2023-05-14T10:21:46.352Z,24.08
2023-05-14T10:24:18.950Z,24.05
2023-05-14T10:26:51.210Z,24.16
2023-05-14T10:29:23.333Z,24.28
2023-05-14T10:31:56.489Z,24.39
2023-05-14T10:34:41.274Z,24.50
2023-05-14T10:37:15.576Z,24.50
2023-05-14T10:39:50.578Z,24.64
2023-05-14T10:42:25.214Z,24.74
2023-05-14T10:44:59.007Z,24.71
2023-05-14T10:47:31.268Z,24.65
2023-05-14T10:50:05.592Z,24.47
2023-05-14T10:52:37.991Z,24.39
2023-05-14T10:55:13.477Z,24.39
2023-05-14T10:57:47.291Z,24.41
2023-05-14T11:00:20.725Z,24.43
2023-05-14T11:02:52.673Z,24.45
2023-05-14T11:05:27.646Z,24.42
2023-05-14T11:08:00.661Z,24.47
2023-05-14T11:10:32.515Z,24.51
2023-05-14T11:13:04.454Z,24.53
2023-05-14T11:15:36.468Z,24.55
2023-05-14T11:18:08.348Z,24.60
2023-05-14T11:20:40.598Z,24.66
2023-05-14T11:23:12.584Z,24.57
2023-05-14T11:25:45.487Z,24.42
2023-05-14T11:28:17.835Z,24.35
2023-05-14T11:30:50.038Z,24.25
2023-05-14T11:33:22.332Z,24.19
2023-05-14T11:35:54.216Z,24.07
2023-05-14T11:38:26.091Z,24.05
2023-05-14T11:40:59.317Z,24.07
2023-05-14T11:43:31.202Z,24.04
2023-05-14T11:46:03.063Z,23.95
2023-05-14T11:48:35.061Z,24.08
2023-05-14T11:51:07.195Z,24.09
2023-05-14T11:53:39.034Z,24.11
2023-05-14T11:56:11.465Z,24.15
2023-05-14T11:58:48.322Z,24.22
2023-05-14T12:01:20.283Z,24.23
2023-05-14T12:03:54.347Z,24.26
2023-05-14T12:06:33.239Z,24.17
2023-05-14T12:09:07.789Z,24.09
2023-05-14T12:11:40.258Z,24.14
2023-05-14T12:14:17.781Z,24.13
2023-05-14T12:16:49.954Z,24.04
2023-05-14T12:19:23.591Z,23.90
2023-05-14T12:21:53.984Z,23.82
2023-05-14T12:24:28.400Z,23.82
2023-05-14T12:27:04.270Z,23.85
2023-05-14T12:29:39.881Z,23.93
2023-05-14T12:32:12.329Z,23.97
2023-05-14T12:34:44.134Z,23.93
2023-05-14T12:37:15.960Z,23.94
2023-05-14T12:39:47.811Z,24.03
2023-05-14T12:42:20.232Z,24.14
2023-05-14T12:44:52.567Z,24.17
2023-05-14T12:47:24.636Z,24.22
2023-05-14T12:49:56.556Z,24.25
2023-05-14T12:52:37.866Z,24.27
2023-05-14T12:55:12.270Z,24.35
2023-05-14T12:57:44.426Z,24.35
2023-05-14T13:00:17.451Z,24.34
2023-05-14T13:02:49.285Z,24.40
2023-05-14T13:05:21.478Z,24.56
2023-05-14T13:07:55.130Z,24.71
2023-05-14T13:10:26.866Z,24.78
2023-05-14T13:12:58.762Z,24.72
2023-05-14T13:15:31.753Z,24.73
2023-05-14T13:18:03.817Z,24.76
2023-05-14T13:20:35.833Z,24.75
2023-05-14T13:23:07.616Z,24.75
2023-05-14T13:25:39.459Z,24.73
2023-05-14T13:28:11.313Z,24.58
2023-05-14T13:30:43.316Z,24.37
2023-05-14T13:33:15.117Z,24.20
2023-05-14T13:35:46.971Z,24.02
2023-05-14T13:38:18.744Z,23.81
2023-05-14T13:40:50.580Z,23.64
2023-05-14T13:43:22.420Z,23.52
2023-05-14T13:45:54.284Z,23.43
2023-05-14T13:48:27.127Z,23.34
2023-05-14T13:50:59.291Z,23.22
2023-05-14T13:53:31.615Z,23.15
2023-05-14T13:56:03.509Z,23.07
2023-05-14T13:58:35.476Z,22.97
2023-05-14T14:01:07.778Z,22.89
2023-05-14T14:03:39.806Z,22.80
2023-05-14T14:06:11.914Z,22.75
2023-05-14T14:08:43.846Z,22.69
2023-05-14T14:11:16.930Z,22.61
2023-05-14T14:13:48.751Z,22.59
2023-05-14T14:16:20.959Z,22.61
2023-05-14T14:18:52.936Z,22.67
2023-05-14T14:21:25.035Z,22.71
2023-05-14T14:23:56.910Z,22.78
2023-05-14T14:26:29.345Z,22.76
2023-05-14T14:29:01.369Z,22.70
2023-05-14T14:31:34.602Z,22.64
2023-05-14T14:34:06.483Z,22.70
2023-05-14T14:36:38.239Z,22.78
2023-05-14T14:39:10.778Z,22.82
2023-05-14T14:41:42.645Z,22.90
2023-05-14T14:44:15.022Z,22.97
2023-05-14T14:46:46.971Z,23.05
2023-05-14T14:49:18.944Z,23.13
2023-05-14T14:51:50.826Z,23.20
2023-05-14T14:54:22.679Z,23.30
2023-05-14T14:56:54.927Z,23.38
2023-05-14T14:59:26.862Z,23.45
2023-05-14T15:01:58.675Z,23.51
2023-05-14T15:04:34.149Z,23.56
2023-05-14T15:07:06.465Z,23.59
2023-05-14T15:09:38.791Z,23.59
2023-05-14T15:12:11.311Z,23.55
2023-05-14T15:14:43.760Z,23.55
2023-05-14T15:17:15.751Z,23.56
2023-05-14T15:19:47.629Z,23.59
2023-05-14T15:22:19.456Z,23.62
2023-05-14T15:24:52.333Z,23.63
2023-05-14T15:27:24.178Z,23.63
2023-05-14T15:29:56.115Z,23.62
2023-05-14T15:32:28.541Z,23.58
2023-05-14T15:35:01.196Z,23.56
2023-05-14T15:37:38.819Z,23.53
2023-05-14T15:40:12.273Z,23.45
2023-05-14T15:42:44.989Z,23.36
2023-05-14T15:45:17.046Z,23.28
2023-05-14T15:47:48.971Z,23.22
2023-05-14T15:50:20.877Z,23.17
2023-05-14T15:52:52.976Z,23.11
2023-05-14T15:55:25.033Z,23.07
2023-05-14T15:57:56.997Z,23.04
2023-05-14T16:00:28.877Z,23.03
2023-05-14T16:03:00.860Z,23.01
2023-05-14T16:05:32.798Z,22.96
2023-05-14T16:08:04.601Z,22.90
2023-05-14T16:10:36.390Z,22.83
2023-05-14T16:13:08.069Z,22.78
2023-05-14T16:15:39.833Z,22.75
2023-05-14T16:18:11.811Z,22.71
2023-05-14T16:20:43.633Z,22.70
2023-05-14T16:23:15.443Z,22.68
2023-05-14T16:25:47.454Z,22.65
2023-05-14T16:28:19.366Z,22.61
2023-05-14T16:30:51.051Z,22.57
2023-05-14T16:33:22.877Z,22.53
2023-05-14T16:35:54.827Z,22.47
2023-05-14T16:38:26.641Z,22.42
2023-05-14T16:40:58.584Z,22.41
2023-05-14T16:43:30.274Z,22.36
2023-05-14T16:46:02.064Z,22.29
2023-05-14T16:48:33.816Z,22.22
2023-05-14T16:51:05.678Z,22.16
2023-05-14T16:53:37.394Z,22.11
2023-05-14T16:56:11.088Z,22.04
2023-05-14T16:58:43.054Z,21.96
2023-05-14T17:01:14.830Z,21.90
2023-05-14T17:03:46.864Z,21.84
2023-05-14T17:06:18.829Z,21.78
2023-05-14T17:08:50.721Z,21.72
2023-05-14T17:11:24.197Z,21.65
2023-05-14T17:14:03.964Z,21.57
2023-05-14T17:16:35.969Z,21.50
2023-05-14T17:19:06.773Z,21.41
2023-05-14T17:21:38.568Z,21.32
2023-05-14T17:24:10.687Z,21.23
2023-05-14T17:26:42.610Z,21.15
2023-05-14T17:29:14.461Z,21.08
2023-05-14T17:31:46.266Z,21.00
2023-05-14T17:34:18.941Z,20.93
2023-05-14T17:36:50.847Z,20.87
2023-05-14T17:39:22.612Z,20.81
2023-05-14T17:41:54.380Z,20.76
2023-05-14T17:44:26.251Z,20.65
2023-05-14T17:46:58.118Z,20.60
2023-05-14T17:49:29.980Z,20.51
2023-05-14T17:52:01.920Z,20.42
2023-05-14T17:54:33.737Z,20.32
2023-05-14T17:57:06.054Z,20.24
2023-05-14T17:59:37.883Z,20.15
2023-05-14T18:02:09.944Z,20.05
2023-05-14T18:04:41.846Z,19.94
2023-05-14T18:07:13.684Z,19.83
2023-05-14T18:09:45.557Z,19.73
2023-05-14T18:12:17.363Z,19.61
2023-05-14T18:14:49.248Z,19.50
2023-05-14T18:17:21.109Z,19.40
2023-05-14T18:19:53.033Z,19.28
2023-05-14T18:22:28.176Z,19.17
2023-05-14T18:25:02.453Z,19.03
2023-05-14T18:27:34.206Z,18.91
2023-05-14T18:30:07.439Z,18.78
2023-05-14T18:32:39.389Z,18.65
2023-05-14T18:35:14.472Z,18.48
2023-05-14T18:37:46.250Z,18.37
2023-05-14T18:40:18.974Z,18.25
2023-05-14T18:42:51.003Z,18.10
2023-05-14T18:45:24.430Z,18.02
2023-05-14T18:47:56.586Z,17.92
2023-05-14T18:50:29.010Z,17.82
2023-05-14T18:53:01.079Z,17.72
2023-05-14T18:55:33.109Z,17.62
2023-05-14T18:58:04.994Z,17.53
2023-05-14T19:00:37.040Z,17.43
2023-05-14T19:03:09.041Z,17.33
2023-05-14T19:05:41.417Z,17.24
2023-05-14T19:08:15.675Z,17.10
2023-05-14T19:10:47.664Z,17.03
2023-05-14T19:13:19.534Z,16.96
2023-05-14T19:15:51.696Z,16.86
2023-05-14T19:18:23.578Z,16.78
2023-05-14T19:20:57.002Z,16.70
2023-05-14T19:23:31.182Z,16.63
2023-05-14T19:26:04.092Z,16.57
2023-05-14T19:28:38.071Z,16.52
2023-05-14T19:31:10.038Z,16.49
2023-05-14T19:33:42.037Z,16.46
2023-05-14T19:36:14.018Z,16.43
2023-05-14T19:38:46.398Z,16.39
2023-05-14T19:41:18.164Z,16.35
2023-05-14T19:43:50.103Z,16.30
2023-05-14T19:46:22.095Z,16.26
2023-05-14T19:48:53.955Z,16.22
2023-05-14T19:51:26.350Z,16.19
2023-05-14T19:53:58.530Z,16.15
2023-05-14T19:56:30.467Z,16.11
2023-05-14T19:59:02.317Z,16.08
2023-05-14T20:01:35.887Z,16.04
2023-05-14T20:04:07.356Z,16.00
2023-05-14T20:06:40.359Z,15.91
2023-05-14T20:09:12.924Z,15.90
2023-05-14T20:11:44.694Z,15.85
2023-05-14T20:14:16.538Z,15.78
2023-05-14T20:16:49.127Z,15.78
2023-05-14T20:19:22.518Z,15.74
2023-05-14T20:21:54.470Z,15.71
2023-05-14T20:24:26.410Z,15.63
2023-05-14T20:26:58.174Z,15.64
2023-05-14T20:29:30.024Z,15.60
2023-05-14T20:32:01.791Z,15.59
2023-05-14T20:34:33.528Z,15.55
2023-05-14T20:37:06.811Z,15.51
2023-05-14T20:39:38.734Z,15.48
2023-05-14T20:42:10.767Z,15.45
2023-05-14T20:44:42.660Z,15.41
2023-05-14T20:47:17.857Z,15.37
2023-05-14T20:49:49.770Z,15.32
2023-05-14T20:52:22.315Z,15.31
2023-05-14T20:54:54.132Z,15.27
2023-05-14T20:57:26.146Z,15.25
2023-05-14T20:59:57.938Z,15.22
2023-05-14T21:02:30.070Z,15.19
2023-05-14T21:05:03.125Z,15.17
2023-05-14T21:07:36.531Z,15.15
2023-05-14T21:10:10.207Z,15.12
2023-05-14T21:12:42.812Z,15.09
2023-05-14T21:15:16.572Z,15.06
2023-05-14T21:17:48.415Z,15.03
2023-05-14T21:20:20.567Z,14.97
2023-05-14T21:22:52.385Z,14.98
2023-05-14T21:25:25.115Z,14.96
2023-05-14T21:27:57.211Z,14.93
2023-05-14T21:30:28.991Z,14.90
2023-05-14T21:33:00.871Z,14.88
2023-05-14T21:35:32.824Z,14.85
2023-05-14T21:38:04.767Z,14.83
2023-05-14T21:40:36.785Z,14.80
2023-05-14T21:43:08.743Z,14.78
2023-05-14T21:45:40.699Z,14.75
2023-05-14T21:48:12.483Z,14.69
2023-05-14T21:50:44.325Z,14.66
2023-05-14T21:53:16.339Z,14.68
2023-05-14T21:55:49.987Z,14.66
2023-05-14T21:58:21.936Z,14.63
2023-05-14T22:00:53.982Z,14.63
2023-05-14T22:03:25.889Z,14.61
2023-05-14T22:05:57.941Z,14.56
2023-05-14T22:08:31.213Z,14.58
2023-05-14T22:11:03.720Z,14.58
2023-05-14T22:13:37.671Z,14.56
2023-05-14T22:16:13.758Z,14.55
2023-05-14T22:18:47.279Z,14.55
2023-05-14T22:21:19.174Z,14.55
2023-05-14T22:23:51.105Z,14.50
2023-05-14T22:26:22.917Z,14.53
2023-05-14T22:28:55.601Z,14.54
2023-05-14T22:31:27.449Z,14.53
2023-05-14T22:33:59.291Z,14.53
2023-05-14T22:36:31.089Z,14.54
2023-05-14T22:39:03.006Z,14.55
2023-05-14T22:41:34.922Z,14.57
2023-05-14T22:44:06.745Z,14.59
2023-05-14T22:46:38.591Z,14.60
2023-05-14T22:49:10.374Z,14.61
2023-05-14T22:51:42.419Z,14.58
2023-05-14T22:54:14.155Z,14.63
2023-05-14T22:56:46.506Z,14.64
2023-05-14T22:59:18.359Z,14.66
2023-05-14T23:01:50.161Z,14.68
2023-05-14T23:04:22.352Z,14.68
2023-05-14T23:06:54.220Z,14.68
2023-05-14T23:09:26.146Z,14.68
2023-05-14T23:11:57.938Z,14.69
2023-05-14T23:14:29.706Z,14.69
2023-05-14T23:17:01.783Z,14.70
2023-05-14T23:19:33.552Z,14.71
2023-05-14T23:22:05.561Z,14.67
2023-05-14T23:24:37.473Z,14.72
2023-05-14T23:27:09.647Z,14.68
2023-05-14T23:29:41.425Z,14.69
2023-05-14T23:32:13.324Z,14.72
2023-05-14T23:34:45.223Z,14.75
2023-05-14T23:37:17.036Z,14.76
2023-05-14T23:39:48.872Z,14.78
2023-05-14T23:42:20.721Z,14.80
2023-05-14T23:44:52.568Z,14.81
2023-05-14T23:47:24.403Z,14.82
2023-05-14T23:49:56.410Z,14.81
2023-05-14T23:52:28.248Z,14.83
2023-05-14T23:55:00.160Z,14.82
2023-05-14T23:57:32.074Z,14.87
